sensor_id;sensor_type;location;lat;lon;timestamp;P1;durP1;ratioP1;P2;durP2;ratioP2
59167;SDS011;44948;55.046;73.266;2023-02-28T00:00:05;18.27;;;7.50;;
59167;SDS011;44948;55.046;73.266;2023-02-28T00:03:14;16.52;;;6.72;;
59167;SDS011;44948;55.046;73.266;2023-02-28T00:06:28;13.80;;;6.22;;
59167;SDS011;44948;55.046;73.266;2023-02-28T00:09:30;12.00;;;6.10;;
59167;SDS011;44948;55.046;73.266;2023-02-28T00:12:40;15.15;;;6.90;;
59167;SDS011;44948;55.046;73.266;2023-02-28T00:15:43;16.85;;;7.97;;
59167;SDS011;44948;55.046;73.266;2023-02-28T00:18:47;21.10;;;9.30;;
59167;SDS011;44948;55.046;73.266;2023-02-28T00:21:50;24.40;;;9.70;;
59167;SDS011;44948;55.046;73.266;2023-02-28T00:24:57;15.98;;;6.45;;
59167;SDS011;44948;55.046;73.266;2023-02-28T00:28:00;20.92;;;8.52;;
59167;SDS011;44948;55.046;73.266;2023-02-28T00:31:02;25.48;;;9.95;;
59167;SDS011;44948;55.046;73.266;2023-02-28T00:34:08;30.35;;;11.52;;
59167;SDS011;44948;55.046;73.266;2023-02-28T00:37:10;25.45;;;8.90;;
59167;SDS011;44948;55.046;73.266;2023-02-28T00:40:16;20.57;;;8.53;;
59167;SDS011;44948;55.046;73.266;2023-02-28T00:43:19;22.70;;;8.73;;
59167;SDS011;44948;55.046;73.266;2023-02-28T00:46:27;27.42;;;10.18;;
59167;SDS011;44948;55.046;73.266;2023-02-28T00:49:39;23.77;;;9.00;;
59167;SDS011;44948;55.046;73.266;2023-02-28T00:52:47;22.88;;;7.65;;
59167;SDS011;44948;55.046;73.266;2023-02-28T00:55:50;18.75;;;7.63;;
59167;SDS011;44948;55.046;73.266;2023-02-28T00:58:52;17.88;;;7.35;;
59167;SDS011;44948;55.046;73.266;2023-02-28T01:01:55;16.50;;;7.70;;
59167;SDS011;44948;55.046;73.266;2023-02-28T01:04:57;15.45;;;6.85;;
59167;SDS011;44948;55.046;73.266;2023-02-28T01:08:00;13.95;;;7.00;;
59167;SDS011;44948;55.046;73.266;2023-02-28T01:11:07;18.20;;;7.90;;
59167;SDS011;44948;55.046;73.266;2023-02-28T01:14:15;20.73;;;8.95;;
59167;SDS011;44948;55.046;73.266;2023-02-28T01:17:20;22.45;;;7.97;;
59167;SDS011;44948;55.046;73.266;2023-02-28T01:20:25;16.52;;;7.10;;
59167;SDS011;44948;55.046;73.266;2023-02-28T01:23:27;18.95;;;8.23;;
59167;SDS011;44948;55.046;73.266;2023-02-28T01:26:30;18.10;;;7.70;;
59167;SDS011;44948;55.046;73.266;2023-02-28T01:29:33;13.43;;;7.10;;
59167;SDS011;44948;55.046;73.266;2023-02-28T01:32:35;18.00;;;7.50;;
59167;SDS011;44948;55.046;73.266;2023-02-28T01:35:38;13.05;;;5.90;;
59167;SDS011;44948;55.046;73.266;2023-02-28T01:38:40;16.60;;;8.15;;
59167;SDS011;44948;55.046;73.266;2023-02-28T01:41:54;17.23;;;8.73;;
59167;SDS011;44948;55.046;73.266;2023-02-28T01:44:58;18.10;;;7.65;;
59167;SDS011;44948;55.046;73.266;2023-02-28T01:48:34;16.52;;;7.22;;
59167;SDS011;44948;55.046;73.266;2023-02-28T01:51:47;19.27;;;7.07;;
59167;SDS011;44948;55.046;73.266;2023-02-28T01:54:56;19.63;;;7.22;;
59167;SDS011;44948;55.046;73.266;2023-02-28T01:58:02;18.88;;;6.95;;
59167;SDS011;44948;55.046;73.266;2023-02-28T02:01:08;23.30;;;8.77;;
59167;SDS011;44948;55.046;73.266;2023-02-28T02:07:23;17.73;;;7.53;;
59167;SDS011;44948;55.046;73.266;2023-02-28T02:10:39;16.19;;;7.67;;
59167;SDS011;44948;55.046;73.266;2023-02-28T02:17:38;18.45;;;8.13;;
59167;SDS011;44948;55.046;73.266;2023-02-28T02:24:29;15.90;;;7.20;;
59167;SDS011;44948;55.046;73.266;2023-02-28T02:37:46;24.33;;;9.75;;
59167;SDS011;44948;55.046;73.266;2023-02-28T02:44:21;18.30;;;7.03;;
59167;SDS011;44948;55.046;73.266;2023-02-28T02:47:34;20.42;;;7.95;;
59167;SDS011;44948;55.046;73.266;2023-02-28T02:50:39;23.02;;;9.50;;
59167;SDS011;44948;55.046;73.266;2023-02-28T02:57:22;22.58;;;8.15;;
59167;SDS011;44948;55.046;73.266;2023-02-28T03:00:35;10.73;;;5.70;;
59167;SDS011;44948;55.046;73.266;2023-02-28T03:03:58;13.45;;;5.57;;
59167;SDS011;44948;55.046;73.266;2023-02-28T03:07:08;11.88;;;5.90;;
59167;SDS011;44948;55.046;73.266;2023-02-28T03:21:10;12.57;;;5.30;;
59167;SDS011;44948;55.046;73.266;2023-02-28T03:24:43;7.55;;;3.65;;
59167;SDS011;44948;55.046;73.266;2023-02-28T03:28:22;9.85;;;5.15;;
59167;SDS011;44948;55.046;73.266;2023-02-28T03:31:37;13.93;;;7.18;;
59167;SDS011;44948;55.046;73.266;2023-02-28T03:34:46;12.25;;;4.80;;
59167;SDS011;44948;55.046;73.266;2023-02-28T03:38:10;13.13;;;4.97;;
59167;SDS011;44948;55.046;73.266;2023-02-28T03:41:39;28.02;;;10.82;;
59167;SDS011;44948;55.046;73.266;2023-02-28T03:44:50;13.13;;;5.75;;
59167;SDS011;44948;55.046;73.266;2023-02-28T03:48:01;13.48;;;5.00;;
59167;SDS011;44948;55.046;73.266;2023-02-28T03:51:18;15.82;;;5.93;;
59167;SDS011;44948;55.046;73.266;2023-02-28T03:54:35;20.00;;;7.18;;
59167;SDS011;44948;55.046;73.266;2023-02-28T03:58:04;13.52;;;5.93;;
59167;SDS011;44948;55.046;73.266;2023-02-28T04:04:29;10.35;;;4.30;;
59167;SDS011;44948;55.046;73.266;2023-02-28T04:07:32;8.95;;;4.28;;
59167;SDS011;44948;55.046;73.266;2023-02-28T04:10:35;11.05;;;5.35;;
59167;SDS011;44948;55.046;73.266;2023-02-28T04:13:38;11.63;;;5.10;;
59167;SDS011;44948;55.046;73.266;2023-02-28T04:16:46;19.05;;;6.90;;
59167;SDS011;44948;55.046;73.266;2023-02-28T04:19:55;24.08;;;10.25;;
59167;SDS011;44948;55.046;73.266;2023-02-28T04:22:58;10.57;;;4.35;;
59167;SDS011;44948;55.046;73.266;2023-02-28T04:26:05;9.25;;;4.10;;
59167;SDS011;44948;55.046;73.266;2023-02-28T04:29:20;14.38;;;5.68;;
59167;SDS011;44948;55.046;73.266;2023-02-28T04:32:38;10.53;;;4.97;;
59167;SDS011;44948;55.046;73.266;2023-02-28T04:35:40;65.22;;;16.95;;
59167;SDS011;44948;55.046;73.266;2023-02-28T04:38:53;12.93;;;6.00;;
59167;SDS011;44948;55.046;73.266;2023-02-28T04:41:56;44.60;;;13.85;;
59167;SDS011;44948;55.046;73.266;2023-02-28T04:44:58;48.50;;;16.02;;
59167;SDS011;44948;55.046;73.266;2023-02-28T04:48:02;30.75;;;14.07;;
59167;SDS011;44948;55.046;73.266;2023-02-28T04:51:06;29.38;;;11.48;;
59167;SDS011;44948;55.046;73.266;2023-02-28T04:54:11;15.10;;;8.10;;
59167;SDS011;44948;55.046;73.266;2023-02-28T04:57:19;11.38;;;4.80;;
59167;SDS011;44948;55.046;73.266;2023-02-28T05:00:22;11.70;;;4.88;;
59167;SDS011;44948;55.046;73.266;2023-02-28T05:03:24;13.25;;;6.45;;
59167;SDS011;44948;55.046;73.266;2023-02-28T05:06:27;11.95;;;5.50;;
59167;SDS011;44948;55.046;73.266;2023-02-28T05:09:31;12.38;;;4.53;;
59167;SDS011;44948;55.046;73.266;2023-02-28T05:12:34;13.60;;;5.60;;
59167;SDS011;44948;55.046;73.266;2023-02-28T05:15:37;29.48;;;12.25;;
59167;SDS011;44948;55.046;73.266;2023-02-28T05:18:40;13.98;;;5.95;;
59167;SDS011;44948;55.046;73.266;2023-02-28T05:21:49;13.20;;;5.40;;
59167;SDS011;44948;55.046;73.266;2023-02-28T05:24:55;22.10;;;8.45;;
59167;SDS011;44948;55.046;73.266;2023-02-28T05:27:57;20.20;;;8.10;;
59167;SDS011;44948;55.046;73.266;2023-02-28T05:31:06;31.25;;;11.82;;
59167;SDS011;44948;55.046;73.266;2023-02-28T05:34:22;12.52;;;5.82;;
59167;SDS011;44948;55.046;73.266;2023-02-28T05:37:24;9.90;;;4.65;;
59167;SDS011;44948;55.046;73.266;2023-02-28T05:40:38;10.40;;;5.00;;
59167;SDS011;44948;55.046;73.266;2023-02-28T05:43:42;14.35;;;5.90;;
59167;SDS011;44948;55.046;73.266;2023-02-28T05:46:45;28.20;;;10.85;;
59167;SDS011;44948;55.046;73.266;2023-02-28T05:49:48;49.92;;;17.48;;
59167;SDS011;44948;55.046;73.266;2023-02-28T05:52:55;34.58;;;13.13;;
59167;SDS011;44948;55.046;73.266;2023-02-28T05:55:58;15.90;;;6.38;;
59167;SDS011;44948;55.046;73.266;2023-02-28T05:59:03;11.30;;;4.90;;
59167;SDS011;44948;55.046;73.266;2023-02-28T06:02:08;20.25;;;7.35;;
59167;SDS011;44948;55.046;73.266;2023-02-28T06:05:15;22.23;;;8.02;;
59167;SDS011;44948;55.046;73.266;2023-02-28T06:08:19;19.13;;;7.57;;
59167;SDS011;44948;55.046;73.266;2023-02-28T06:11:22;40.15;;;13.73;;
59167;SDS011;44948;55.046;73.266;2023-02-28T06:14:28;45.15;;;18.35;;
59167;SDS011;44948;55.046;73.266;2023-02-28T06:17:38;17.83;;;7.97;;
59167;SDS011;44948;55.046;73.266;2023-02-28T06:20:40;20.00;;;9.10;;
59167;SDS011;44948;55.046;73.266;2023-02-28T06:23:44;99.07;;;27.15;;
59167;SDS011;44948;55.046;73.266;2023-02-28T06:26:46;51.65;;;20.27;;
59167;SDS011;44948;55.046;73.266;2023-02-28T06:29:53;45.47;;;17.33;;
59167;SDS011;44948;55.046;73.266;2023-02-28T06:32:57;57.25;;;16.67;;
59167;SDS011;44948;55.046;73.266;2023-02-28T06:36:10;25.83;;;11.38;;
59167;SDS011;44948;55.046;73.266;2023-02-28T06:39:15;24.35;;;9.48;;
59167;SDS011;44948;55.046;73.266;2023-02-28T06:42:30;37.15;;;14.18;;
59167;SDS011;44948;55.046;73.266;2023-02-28T06:45:32;23.00;;;9.23;;
59167;SDS011;44948;55.046;73.266;2023-02-28T06:48:40;15.10;;;5.68;;
59167;SDS011;44948;55.046;73.266;2023-02-28T06:51:43;19.65;;;9.10;;
59167;SDS011;44948;55.046;73.266;2023-02-28T06:54:46;15.07;;;6.95;;
59167;SDS011;44948;55.046;73.266;2023-02-28T06:58:01;17.30;;;8.55;;
59167;SDS011;44948;55.046;73.266;2023-02-28T07:01:04;17.73;;;7.80;;
59167;SDS011;44948;55.046;73.266;2023-02-28T07:04:06;17.23;;;8.43;;
59167;SDS011;44948;55.046;73.266;2023-02-28T07:07:09;19.13;;;9.32;;
59167;SDS011;44948;55.046;73.266;2023-02-28T07:10:11;17.02;;;7.68;;
59167;SDS011;44948;55.046;73.266;2023-02-28T07:13:15;12.77;;;6.40;;
59167;SDS011;44948;55.046;73.266;2023-02-28T07:16:17;27.67;;;11.88;;
59167;SDS011;44948;55.046;73.266;2023-02-28T07:19:20;27.25;;;10.88;;
59167;SDS011;44948;55.046;73.266;2023-02-28T07:22:28;34.05;;;12.07;;
59167;SDS011;44948;55.046;73.266;2023-02-28T07:25:30;39.88;;;15.70;;
59167;SDS011;44948;55.046;73.266;2023-02-28T07:28:37;35.45;;;13.90;;
59167;SDS011;44948;55.046;73.266;2023-02-28T07:31:40;25.92;;;11.32;;
59167;SDS011;44948;55.046;73.266;2023-02-28T07:34:42;20.77;;;10.18;;
59167;SDS011;44948;55.046;73.266;2023-02-28T07:37:50;27.98;;;11.15;;
59167;SDS011;44948;55.046;73.266;2023-02-28T07:40:58;33.65;;;12.40;;
59167;SDS011;44948;55.046;73.266;2023-02-28T07:44:00;23.15;;;10.63;;
59167;SDS011;44948;55.046;73.266;2023-02-28T07:47:04;38.60;;;14.80;;
59167;SDS011;44948;55.046;73.266;2023-02-28T07:50:08;37.67;;;15.32;;
59167;SDS011;44948;55.046;73.266;2023-02-28T07:53:12;49.65;;;16.35;;
59167;SDS011;44948;55.046;73.266;2023-02-28T07:56:15;18.10;;;7.93;;
59167;SDS011;44948;55.046;73.266;2023-02-28T07:59:22;23.35;;;9.52;;
59167;SDS011;44948;55.046;73.266;2023-02-28T08:02:25;34.95;;;13.40;;
59167;SDS011;44948;55.046;73.266;2023-02-28T08:05:27;28.98;;;12.52;;
59167;SDS011;44948;55.046;73.266;2023-02-28T08:08:31;27.48;;;10.88;;
59167;SDS011;44948;55.046;73.266;2023-02-28T08:11:36;38.28;;;14.80;;
59167;SDS011;44948;55.046;73.266;2023-02-28T08:14:44;22.45;;;9.63;;
59167;SDS011;44948;55.046;73.266;2023-02-28T08:17:54;45.78;;;19.00;;
59167;SDS011;44948;55.046;73.266;2023-02-28T08:21:05;28.23;;;12.10;;
59167;SDS011;44948;55.046;73.266;2023-02-28T08:24:08;31.25;;;14.10;;
59167;SDS011;44948;55.046;73.266;2023-02-28T08:27:11;23.20;;;10.18;;
59167;SDS011;44948;55.046;73.266;2023-02-28T08:30:14;15.48;;;7.22;;
59167;SDS011;44948;55.046;73.266;2023-02-28T08:33:22;22.73;;;9.25;;
59167;SDS011;44948;55.046;73.266;2023-02-28T08:36:25;35.45;;;16.25;;
59167;SDS011;44948;55.046;73.266;2023-02-28T08:39:33;18.45;;;8.70;;
59167;SDS011;44948;55.046;73.266;2023-02-28T08:42:37;30.70;;;13.07;;
59167;SDS011;44948;55.046;73.266;2023-02-28T08:45:42;16.95;;;7.30;;
59167;SDS011;44948;55.046;73.266;2023-02-28T08:48:45;24.58;;;11.32;;
59167;SDS011;44948;55.046;73.266;2023-02-28T08:51:48;30.70;;;15.07;;
59167;SDS011;44948;55.046;73.266;2023-02-28T08:54:50;16.60;;;9.00;;
59167;SDS011;44948;55.046;73.266;2023-02-28T08:58:02;17.80;;;7.75;;
59167;SDS011;44948;55.046;73.266;2023-02-28T09:01:12;15.55;;;8.38;;
59167;SDS011;44948;55.046;73.266;2023-02-28T09:04:26;26.45;;;9.85;;
59167;SDS011;44948;55.046;73.266;2023-02-28T09:07:32;23.43;;;11.57;;
59167;SDS011;44948;55.046;73.266;2023-02-28T09:10:34;27.90;;;11.48;;
59167;SDS011;44948;55.046;73.266;2023-02-28T09:13:38;30.05;;;11.85;;
59167;SDS011;44948;55.046;73.266;2023-02-28T09:16:41;17.40;;;7.60;;
59167;SDS011;44948;55.046;73.266;2023-02-28T09:19:44;25.88;;;10.60;;
59167;SDS011;44948;55.046;73.266;2023-02-28T09:22:47;18.35;;;7.97;;
59167;SDS011;44948;55.046;73.266;2023-02-28T09:25:51;16.00;;;8.63;;
59167;SDS011;44948;55.046;73.266;2023-02-28T09:28:55;25.67;;;9.88;;
59167;SDS011;44948;55.046;73.266;2023-02-28T09:32:05;18.92;;;8.23;;
59167;SDS011;44948;55.046;73.266;2023-02-28T09:35:10;22.28;;;9.45;;
59167;SDS011;44948;55.046;73.266;2023-02-28T09:38:16;17.83;;;8.02;;
59167;SDS011;44948;55.046;73.266;2023-02-28T09:41:20;17.98;;;8.13;;
59167;SDS011;44948;55.046;73.266;2023-02-28T09:44:35;20.75;;;8.82;;
59167;SDS011;44948;55.046;73.266;2023-02-28T09:47:46;19.20;;;8.68;;
59167;SDS011;44948;55.046;73.266;2023-02-28T09:51:02;16.23;;;7.82;;
59167;SDS011;44948;55.046;73.266;2023-02-28T09:54:18;20.97;;;9.47;;
59167;SDS011;44948;55.046;73.266;2023-02-28T09:57:37;35.22;;;15.07;;
59167;SDS011;44948;55.046;73.266;2023-02-28T10:00:47;34.25;;;15.90;;
59167;SDS011;44948;55.046;73.266;2023-02-28T10:07:30;22.48;;;9.82;;
59167;SDS011;44948;55.046;73.266;2023-02-28T10:17:11;18.27;;;8.13;;
59167;SDS011;44948;55.046;73.266;2023-02-28T10:20:19;24.85;;;10.30;;
59167;SDS011;44948;55.046;73.266;2023-02-28T10:26:29;24.55;;;9.07;;
59167;SDS011;44948;55.046;73.266;2023-02-28T10:29:47;22.08;;;8.55;;
59167;SDS011;44948;55.046;73.266;2023-02-28T10:32:54;21.92;;;10.02;;
59167;SDS011;44948;55.046;73.266;2023-02-28T10:36:03;26.38;;;10.73;;
59167;SDS011;44948;55.046;73.266;2023-02-28T10:42:39;24.30;;;10.02;;
59167;SDS011;44948;55.046;73.266;2023-02-28T10:45:53;19.80;;;10.38;;
59167;SDS011;44948;55.046;73.266;2023-02-28T10:49:02;23.55;;;11.80;;
59167;SDS011;44948;55.046;73.266;2023-02-28T10:52:10;14.52;;;7.70;;
59167;SDS011;44948;55.046;73.266;2023-02-28T10:55:22;15.27;;;7.80;;
59167;SDS011;44948;55.046;73.266;2023-02-28T11:01:52;13.70;;;7.38;;
59167;SDS011;44948;55.046;73.266;2023-02-28T11:04:55;25.35;;;9.93;;
59167;SDS011;44948;55.046;73.266;2023-02-28T11:14:47;32.55;;;14.75;;
59167;SDS011;44948;55.046;73.266;2023-02-28T11:21:16;19.70;;;9.48;;
59167;SDS011;44948;55.046;73.266;2023-02-28T11:24:31;15.38;;;7.03;;
59167;SDS011;44948;55.046;73.266;2023-02-28T11:34:24;24.85;;;12.80;;
59167;SDS011;44948;55.046;73.266;2023-02-28T11:37:40;30.45;;;14.32;;
59167;SDS011;44948;55.046;73.266;2023-02-28T11:40:58;38.75;;;15.65;;
59167;SDS011;44948;55.046;73.266;2023-02-28T11:44:28;25.05;;;11.68;;
59167;SDS011;44948;55.046;73.266;2023-02-28T11:47:58;21.27;;;10.77;;
59167;SDS011;44948;55.046;73.266;2023-02-28T12:05:02;19.10;;;9.57;;
59167;SDS011;44948;55.046;73.266;2023-02-28T12:14:58;16.95;;;8.73;;
59167;SDS011;44948;55.046;73.266;2023-02-28T12:21:53;18.52;;;7.82;;
59167;SDS011;44948;55.046;73.266;2023-02-28T12:28:14;14.10;;;6.72;;
59167;SDS011;44948;55.046;73.266;2023-02-28T12:31:27;26.48;;;10.75;;
59167;SDS011;44948;55.046;73.266;2023-02-28T12:34:49;21.80;;;10.23;;
59167;SDS011;44948;55.046;73.266;2023-02-28T12:38:01;24.23;;;10.63;;
59167;SDS011;44948;55.046;73.266;2023-02-28T12:41:27;21.10;;;9.32;;
59167;SDS011;44948;55.046;73.266;2023-02-28T12:44:49;16.13;;;7.53;;
59167;SDS011;44948;55.046;73.266;2023-02-28T12:48:06;11.70;;;6.32;;
59167;SDS011;44948;55.046;73.266;2023-02-28T12:51:12;17.60;;;8.75;;
59167;SDS011;44948;55.046;73.266;2023-02-28T12:54:26;13.88;;;6.93;;
59167;SDS011;44948;55.046;73.266;2023-02-28T12:57:56;14.40;;;7.43;;
59167;SDS011;44948;55.046;73.266;2023-02-28T13:01:15;19.83;;;9.30;;
59167;SDS011;44948;55.046;73.266;2023-02-28T13:11:06;16.85;;;7.32;;
59167;SDS011;44948;55.046;73.266;2023-02-28T13:14:25;13.52;;;7.10;;
59167;SDS011;44948;55.046;73.266;2023-02-28T13:17:28;18.60;;;8.50;;
59167;SDS011;44948;55.046;73.266;2023-02-28T13:20:35;14.57;;;6.85;;
59167;SDS011;44948;55.046;73.266;2023-02-28T13:40:32;13.18;;;6.85;;
59167;SDS011;44948;55.046;73.266;2023-02-28T13:50:23;17.02;;;7.22;;
59167;SDS011;44948;55.046;73.266;2023-02-28T13:53:29;21.27;;;10.00;;
59167;SDS011;44948;55.046;73.266;2023-02-28T14:00:45;16.00;;;7.68;;
59167;SDS011;44948;55.046;73.266;2023-02-28T14:04:14;18.95;;;7.80;;
59167;SDS011;44948;55.046;73.266;2023-02-28T14:07:53;26.13;;;11.50;;
59167;SDS011;44948;55.046;73.266;2023-02-28T14:11:06;24.25;;;11.82;;
59167;SDS011;44948;55.046;73.266;2023-02-28T14:17:37;19.23;;;8.23;;
59167;SDS011;44948;55.046;73.266;2023-02-28T14:20:52;21.27;;;10.10;;
59167;SDS011;44948;55.046;73.266;2023-02-28T14:37:18;15.35;;;8.85;;
59167;SDS011;44948;55.046;73.266;2023-02-28T14:43:33;17.00;;;10.00;;
59167;SDS011;44948;55.046;73.266;2023-02-28T14:46:37;16.17;;;7.57;;
59167;SDS011;44948;55.046;73.266;2023-02-28T14:49:42;17.50;;;9.67;;
59167;SDS011;44948;55.046;73.266;2023-02-28T14:52:53;17.85;;;8.52;;
59167;SDS011;44948;55.046;73.266;2023-02-28T14:55:58;26.67;;;11.60;;
59167;SDS011;44948;55.046;73.266;2023-02-28T14:59:01;28.10;;;11.27;;
59167;SDS011;44948;55.046;73.266;2023-02-28T15:02:17;28.23;;;14.13;;
59167;SDS011;44948;55.046;73.266;2023-02-28T15:05:31;18.35;;;9.07;;
59167;SDS011;44948;55.046;73.266;2023-02-28T15:08:35;26.90;;;13.15;;
59167;SDS011;44948;55.046;73.266;2023-02-28T15:11:37;21.75;;;10.30;;
59167;SDS011;44948;55.046;73.266;2023-02-28T15:14:42;34.05;;;14.35;;
59167;SDS011;44948;55.046;73.266;2023-02-28T15:17:46;29.23;;;13.45;;
59167;SDS011;44948;55.046;73.266;2023-02-28T15:20:53;21.77;;;8.68;;
59167;SDS011;44948;55.046;73.266;2023-02-28T15:24:14;22.38;;;10.98;;
59167;SDS011;44948;55.046;73.266;2023-02-28T15:27:26;24.88;;;12.20;;
59167;SDS011;44948;55.046;73.266;2023-02-28T15:30:32;47.90;;;23.70;;
59167;SDS011;44948;55.046;73.266;2023-02-28T15:33:35;49.58;;;26.55;;
59167;SDS011;44948;55.046;73.266;2023-02-28T15:36:37;49.20;;;20.77;;
59167;SDS011;44948;55.046;73.266;2023-02-28T15:39:42;109.38;;;37.60;;
59167;SDS011;44948;55.046;73.266;2023-02-28T15:43:02;99.47;;;35.20;;
59167;SDS011;44948;55.046;73.266;2023-02-28T15:46:18;89.30;;;29.40;;
59167;SDS011;44948;55.046;73.266;2023-02-28T15:49:21;58.75;;;22.17;;
59167;SDS011;44948;55.046;73.266;2023-02-28T15:52:34;42.72;;;16.33;;
59167;SDS011;44948;55.046;73.266;2023-02-28T15:55:51;26.60;;;11.90;;
59167;SDS011;44948;55.046;73.266;2023-02-28T15:59:06;60.34;;;19.86;;
59167;SDS011;44948;55.046;73.266;2023-02-28T16:02:32;46.60;;;19.88;;
59167;SDS011;44948;55.046;73.266;2023-02-28T16:05:36;24.80;;;10.65;;
59167;SDS011;44948;55.046;73.266;2023-02-28T16:08:38;92.65;;;26.23;;
59167;SDS011;44948;55.046;73.266;2023-02-28T16:11:50;150.13;;;40.00;;
59167;SDS011;44948;55.046;73.266;2023-02-28T16:15:00;57.78;;;17.48;;
59167;SDS011;44948;55.046;73.266;2023-02-28T16:18:08;144.80;;;33.45;;
59167;SDS011;44948;55.046;73.266;2023-02-28T16:21:19;94.80;;;27.92;;
59167;SDS011;44948;55.046;73.266;2023-02-28T16:24:21;66.00;;;20.67;;
59167;SDS011;44948;55.046;73.266;2023-02-28T16:27:31;45.53;;;12.82;;
59167;SDS011;44948;55.046;73.266;2023-02-28T16:30:42;33.28;;;10.45;;
59167;SDS011;44948;55.046;73.266;2023-02-28T16:33:54;114.05;;;25.15;;
59167;SDS011;44948;55.046;73.266;2023-02-28T16:37:01;35.58;;;12.10;;
59167;SDS011;44948;55.046;73.266;2023-02-28T16:40:04;66.88;;;19.70;;
59167;SDS011;44948;55.046;73.266;2023-02-28T16:43:10;50.17;;;18.08;;
59167;SDS011;44948;55.046;73.266;2023-02-28T16:46:19;57.97;;;16.60;;
59167;SDS011;44948;55.046;73.266;2023-02-28T16:49:29;27.16;;;10.14;;
59167;SDS011;44948;55.046;73.266;2023-02-28T16:52:32;27.77;;;9.90;;
59167;SDS011;44948;55.046;73.266;2023-02-28T16:55:35;26.33;;;10.93;;
59167;SDS011;44948;55.046;73.266;2023-02-28T16:58:43;18.05;;;7.43;;
59167;SDS011;44948;55.046;73.266;2023-02-28T17:01:56;22.02;;;9.43;;
59167;SDS011;44948;55.046;73.266;2023-02-28T17:04:59;25.02;;;10.57;;
59167;SDS011;44948;55.046;73.266;2023-02-28T17:08:06;26.77;;;12.07;;
59167;SDS011;44948;55.046;73.266;2023-02-28T17:11:21;25.88;;;10.55;;
59167;SDS011;44948;55.046;73.266;2023-02-28T17:14:34;26.30;;;12.63;;
59167;SDS011;44948;55.046;73.266;2023-02-28T17:17:47;31.88;;;11.75;;
59167;SDS011;44948;55.046;73.266;2023-02-28T17:20:50;28.75;;;11.02;;
59167;SDS011;44948;55.046;73.266;2023-02-28T17:23:52;23.60;;;10.65;;
59167;SDS011;44948;55.046;73.266;2023-02-28T17:26:55;32.72;;;14.38;;
59167;SDS011;44948;55.046;73.266;2023-02-28T17:29:57;26.93;;;12.10;;
59167;SDS011;44948;55.046;73.266;2023-02-28T17:33:00;19.10;;;9.57;;
59167;SDS011;44948;55.046;73.266;2023-02-28T17:36:02;23.00;;;9.45;;
59167;SDS011;44948;55.046;73.266;2023-02-28T17:39:15;29.55;;;12.55;;
59167;SDS011;44948;55.046;73.266;2023-02-28T17:42:35;16.17;;;7.65;;
59167;SDS011;44948;55.046;73.266;2023-02-28T17:45:38;23.63;;;9.77;;
59167;SDS011;44948;55.046;73.266;2023-02-28T17:48:51;21.83;;;11.20;;
59167;SDS011;44948;55.046;73.266;2023-02-28T17:51:55;23.40;;;11.02;;
59167;SDS011;44948;55.046;73.266;2023-02-28T17:54:57;22.45;;;11.45;;
59167;SDS011;44948;55.046;73.266;2023-02-28T17:58:02;25.85;;;12.13;;
59167;SDS011;44948;55.046;73.266;2023-02-28T18:01:05;22.67;;;10.98;;
59167;SDS011;44948;55.046;73.266;2023-02-28T18:04:07;20.80;;;10.23;;
59167;SDS011;44948;55.046;73.266;2023-02-28T18:07:14;18.17;;;8.05;;
59167;SDS011;44948;55.046;73.266;2023-02-28T18:10:18;18.02;;;8.20;;
59167;SDS011;44948;55.046;73.266;2023-02-28T18:13:22;20.60;;;9.38;;
59167;SDS011;44948;55.046;73.266;2023-02-28T18:16:24;22.38;;;10.02;;
59167;SDS011;44948;55.046;73.266;2023-02-28T18:19:32;21.38;;;9.95;;
59167;SDS011;44948;55.046;73.266;2023-02-28T18:22:35;25.48;;;11.13;;
59167;SDS011;44948;55.046;73.266;2023-02-28T18:25:39;27.35;;;12.55;;
59167;SDS011;44948;55.046;73.266;2023-02-28T18:28:42;30.10;;;12.80;;
59167;SDS011;44948;55.046;73.266;2023-02-28T18:31:49;21.95;;;9.82;;
59167;SDS011;44948;55.046;73.266;2023-02-28T18:35:02;28.35;;;11.45;;
59167;SDS011;44948;55.046;73.266;2023-02-28T18:38:16;25.42;;;10.60;;
59167;SDS011;44948;55.046;73.266;2023-02-28T18:41:23;22.27;;;10.20;;
59167;SDS011;44948;55.046;73.266;2023-02-28T18:44:25;25.42;;;11.32;;
59167;SDS011;44948;55.046;73.266;2023-02-28T18:47:33;26.25;;;11.43;;
59167;SDS011;44948;55.046;73.266;2023-02-28T18:50:36;29.52;;;12.54;;
59167;SDS011;44948;55.046;73.266;2023-02-28T18:53:50;25.10;;;11.57;;
59167;SDS011;44948;55.046;73.266;2023-02-28T18:57:02;26.02;;;10.75;;
59167;SDS011;44948;55.046;73.266;2023-02-28T19:00:10;20.05;;;9.15;;
59167;SDS011;44948;55.046;73.266;2023-02-28T19:03:13;22.63;;;10.23;;
59167;SDS011;44948;55.046;73.266;2023-02-28T19:06:16;18.67;;;9.50;;
59167;SDS011;44948;55.046;73.266;2023-02-28T19:09:19;26.75;;;12.13;;
59167;SDS011;44948;55.046;73.266;2023-02-28T19:12:32;20.25;;;10.55;;
59167;SDS011;44948;55.046;73.266;2023-02-28T19:15:44;21.23;;;10.13;;
59167;SDS011;44948;55.046;73.266;2023-02-28T19:18:47;19.17;;;8.98;;
59167;SDS011;44948;55.046;73.266;2023-02-28T19:21:50;18.38;;;9.57;;
59167;SDS011;44948;55.046;73.266;2023-02-28T19:24:52;27.35;;;12.02;;
59167;SDS011;44948;55.046;73.266;2023-02-28T19:27:55;19.80;;;9.68;;
59167;SDS011;44948;55.046;73.266;2023-02-28T19:30:57;16.50;;;8.23;;
59167;SDS011;44948;55.046;73.266;2023-02-28T19:34:00;20.67;;;9.10;;
59167;SDS011;44948;55.046;73.266;2023-02-28T19:37:03;15.52;;;8.10;;
59167;SDS011;44948;55.046;73.266;2023-02-28T19:40:06;13.90;;;7.00;;
59167;SDS011;44948;55.046;73.266;2023-02-28T19:43:10;15.93;;;7.65;;
59167;SDS011;44948;55.046;73.266;2023-02-28T19:46:12;13.13;;;7.55;;
59167;SDS011;44948;55.046;73.266;2023-02-28T19:49:20;16.17;;;8.43;;
59167;SDS011;44948;55.046;73.266;2023-02-28T19:52:25;16.60;;;7.70;;
59167;SDS011;44948;55.046;73.266;2023-02-28T19:55:37;14.75;;;6.93;;
59167;SDS011;44948;55.046;73.266;2023-02-28T19:58:40;17.70;;;7.25;;
59167;SDS011;44948;55.046;73.266;2023-02-28T20:01:42;14.25;;;6.80;;
59167;SDS011;44948;55.046;73.266;2023-02-28T20:04:50;14.30;;;7.63;;
59167;SDS011;44948;55.046;73.266;2023-02-28T20:08:00;16.98;;;8.15;;
59167;SDS011;44948;55.046;73.266;2023-02-28T20:11:07;16.10;;;8.27;;
59167;SDS011;44948;55.046;73.266;2023-02-28T20:14:23;16.38;;;8.00;;
59167;SDS011;44948;55.046;73.266;2023-02-28T20:17:33;16.27;;;7.28;;
59167;SDS011;44948;55.046;73.266;2023-02-28T20:20:36;11.93;;;6.03;;
59167;SDS011;44948;55.046;73.266;2023-02-28T20:23:40;17.40;;;7.55;;
59167;SDS011;44948;55.046;73.266;2023-02-28T20:26:48;13.45;;;6.97;;
59167;SDS011;44948;55.046;73.266;2023-02-28T20:29:51;11.23;;;6.15;;
59167;SDS011;44948;55.046;73.266;2023-02-28T20:32:53;12.07;;;5.60;;
59167;SDS011;44948;55.046;73.266;2023-02-28T20:35:59;12.63;;;5.72;;
59167;SDS011;44948;55.046;73.266;2023-02-28T20:39:02;12.95;;;5.00;;
59167;SDS011;44948;55.046;73.266;2023-02-28T20:42:07;9.87;;;4.93;;
59167;SDS011;44948;55.046;73.266;2023-02-28T20:45:20;10.45;;;4.93;;
59167;SDS011;44948;55.046;73.266;2023-02-28T20:48:23;10.20;;;5.75;;
59167;SDS011;44948;55.046;73.266;2023-02-28T20:51:26;10.40;;;4.90;;